Milborne Port, United Kingdom
Current Conditions -  °F | °C
As of 7:50 AM on Tuesday 21 Oct 2014 (Local Time) from EGDY Reporting Station
Broken Clouds Broken Clouds  
Wind Chill: 14°   Ceiling: 2100
Heat Index: 14°   Visibility: 6mi
Dew Point:   Wind: 23mph
Humidity: 72%   Direction: 270°W
Pressure: 29.65"   Gusts: NA
Location:  50.97°N, 2.46°W
Report Text: EGDY 210650Z AUTO 27020KT 9999 BKN021/// SCT050/// 14/09 Q1004 RERA
Loading
Personal Weather Stations






























Interactive Weather Map
Tropical Storm Tracking
New forecast layout! Learn more

10-Day Weather Forecast

Advertisements
Track Severe Weather on mobile